Ray Eckstein — WDC2804 — position and weather

sailwx.info

Track history (hours):
 
Tides and Currents Weather Stations Pressure Air Temp Water Temp Dewpoint Dewpoint Depression Visibility Wind Speed Wind Dir Waves Ship Positions

Ray Eckstein

Owner: Marquette Transportation Company Gulf-Inland, LLC, Jefferson, LA. More information available from US FCC via Universal Licensing System and Coast Guard Vessel Documentation Center.

Last reported at 2018-Apr-13 21:54 UTC. Time now 2018-Apr-20 12:51 UTC.
Position N 29°28' W 094°51'.

Length 20 m; draft 3 m.

MMSI: 366997930.

Date/timePositionNaut miles runAvg speedWind from/ knotsBaromVisibWave heightAir tempDewpointWater temp
2018-Apr-13 21:54N 29°28' W 094°51'3 7.8
2018-Apr-13 21:30N 29°31' W 094°53'4 8.0
2018-Apr-13 21:00N 29°34' W 094°55'4 8.1
2018-Apr-13 20:30N 29°38' W 094°58'4 8.2
2018-Apr-13 20:00N 29°41' W 094°59'4 6.5
2018-Apr-13 19:28N 29°44' W 095°02'4 1.9
2018-Apr-13 17:33N 29°47' W 095°04'0 5.6
2018-Apr-13 17:30N 29°47' W 095°04'2 0.1
2018-Apr-13 05:31N 29°46' W 095°06'0 3.3
2018-Apr-13 05:30N 29°46' W 095°06'1 1.4
2018-Apr-13 04:43N 29°47' W 095°05'1 4.1
2018-Apr-13 04:30N 29°46' W 095°05'3 5.3
2018-Apr-13 03:58N 29°44' W 095°02'2 3.7
2018-Apr-13 03:30N 29°42' W 095°01'3 5.4
2018-Apr-13 03:00N 29°41' W 094°59'3 6.0
2018-Apr-13 02:30N 29°38' W 094°58'3 6.0
2018-Apr-13 02:00N 29°35' W 094°56'3 6.1
2018-Apr-13 01:30N 29°33' W 094°54'3 6.0
2018-Apr-13 00:58N 29°30' W 094°52'4 6.5
2018-Apr-13 00:24N 29°27' W 094°50'4 7.4
2018-Apr-12 23:49N 29°23' W 094°48'6 5.3
2018-Apr-12 22:37N 29°18' W 094°53'1 5.2
2018-Apr-12 22:29N 29°17' W 094°54'5 4.4
2018-Apr-12 21:21N 29°16' W 094°59'3 4.8
2018-Apr-12 20:50N 29°14' W 095°01'  
2018-Apr-06 20:21N 29°28' W 094°51'3 7.3
2018-Apr-06 20:01N 29°30' W 094°52'4 7.3
2018-Apr-06 19:30N 29°33' W 094°55'4 7.2
2018-Apr-06 19:01N 29°36' W 094°57'4 7.2
2018-Apr-06 18:31N 29°39' W 094°58'3 6.4
2018-Apr-06 17:58N 29°42' W 095°01'3 5.7
2018-Apr-06 17:31N 29°44' W 095°03'3 5.1
2018-Apr-06 16:53N 29°47' W 095°04'2 0.1
2018-Apr-05 22:12N 29°45' W 095°06'2 8.4
2018-Apr-05 21:59N 29°47' W 095°05'0 0.2
2018-Apr-05 20:39N 29°47' W 095°04'1 0.7
2018-Apr-05 18:39N 29°46' W 095°05'1 6.4
2018-Apr-05 18:29N 29°47' W 095°04'0 0.4
2018-Apr-05 17:57N 29°47' W 095°04'3 6.0
2018-Apr-05 17:23N 29°44' W 095°03'2 6.5
2018-Apr-05 17:00N 29°42' W 095°01'4 7.2
2018-Apr-05 16:31N 29°39' W 094°58'3 5.1
2018-Apr-05 16:00N 29°37' W 094°59'2 4.5
2018-Apr-05 15:30N 29°37' W 095°01'0 0.1
2018-Apr-05 14:48N 29°37' W 095°02'0 0.0
2018-Apr-05 14:07N 29°37' W 095°02'0 0.0
2018-Apr-05 13:45N 29°37' W 095°02'0 0.0
2018-Apr-05 13:21N 29°37' W 095°02'0 0.0
2018-Apr-05 13:00N 29°37' W 095°02'0 0.0
2018-Apr-05 12:30N 29°37' W 095°02'0 0.0
2018-Apr-05 11:06N 29°37' W 095°02'0 0.0
2018-Apr-05 10:42N 29°37' W 095°02'0 0.0
2018-Apr-05 10:30N 29°37' W 095°02'0 0.0
2018-Apr-05 09:33N 29°37' W 095°02'0 0.0
2018-Apr-05 08:55N 29°37' W 095°02'0 0.0
2018-Apr-05 08:29N 29°37' W 095°02'0 0.0
2018-Apr-05 08:00N 29°37' W 095°02'0 0.0
2018-Apr-05 07:30N 29°37' W 095°02'0 0.0
2018-Apr-05 06:54N 29°37' W 095°02'0 0.0
2018-Apr-05 06:30N 29°37' W 095°02'0 0.0
2018-Apr-05 06:00N 29°37' W 095°02'0 0.0
2018-Apr-05 05:27N 29°37' W 095°02'0 0.0
2018-Apr-05 05:00N 29°37' W 095°02'0 0.0
2018-Apr-05 04:31N 29°37' W 095°02'0 0.0
2018-Apr-05 03:56N 29°37' W 095°02'0 0.0
2018-Apr-05 03:20N 29°37' W 095°02'0 0.0
2018-Apr-05 02:27N 29°37' W 095°02'0 0.0
2018-Apr-05 01:52N 29°37' W 095°02'0 0.0
2018-Apr-05 01:30N 29°37' W 095°02'0 0.0
2018-Apr-05 00:46N 29°37' W 095°02'0 0.0
2018-Apr-05 00:30N 29°37' W 095°02'0 0.0
2018-Apr-05 00:00N 29°37' W 095°02'0 0.0
2018-Apr-04 23:30N 29°37' W 095°02'0 0.0
2018-Apr-04 23:00N 29°37' W 095°02'0 0.1
2018-Apr-04 22:30N 29°37' W 095°01'1 1.4
2018-Apr-04 22:00N 29°37' W 095°01'3 5.7
2018-Apr-04 21:31N 29°38' W 094°58'4 8.4
2018-Apr-04 21:00N 29°42' W 095°01'4 8.1
2018-Apr-04 20:30N 29°45' W 095°04'2 1.1
2018-Apr-04 18:47N 29°45' W 095°06'1 0.4
2018-Apr-04 17:19N 29°46' W 095°07'1 2.6
2018-Apr-04 17:00N 29°45' W 095°06'0 0.1
2018-Apr-04 12:34N 29°46' W 095°05'2 1.1
2018-Apr-04 10:25N 29°44' W 095°08'2 2.9
2018-Apr-04 09:40N 29°45' W 095°06'1 3.9
2018-Apr-04 09:29N 29°46' W 095°05'0 0.1
2018-Apr-04 07:43N 29°46' W 095°05'1 0.5
2018-Apr-04 06:05N 29°46' W 095°06'0 0.1
2018-Apr-04 05:59N 29°46' W 095°06'0 0.0
2018-Apr-04 05:30N 29°46' W 095°06'0 0.4
2018-Apr-04 04:20N 29°45' W 095°06'2 5.6
2018-Apr-04 03:58N 29°47' W 095°04'0 0.0
2018-Apr-03 22:43N 29°47' W 095°05'0 0.5
2018-Apr-03 22:08N 29°47' W 095°04'1 4.2
2018-Apr-03 22:00N 29°47' W 095°05'  
Track history (hours):
 
Tides and Currents Weather Stations Pressure Air Temp Water Temp Dewpoint Dewpoint Depression Visibility Wind Speed Wind Dir Waves Ship Positions

Ray Eckstein

Owner: Marquette Transportation Company Gulf-Inland, LLC, Jefferson, LA. More information available from US FCC via Universal Licensing System and Coast Guard Vessel Documentation Center.

Last reported at 2018-Apr-13 21:54 UTC. Time now 2018-Apr-20 12:51 UTC.
Position N 29°28' W 094°51'.

Length 20 m; draft 3 m.

MMSI: 366997930.

Date/timePositionNaut miles runAvg speedWind from/ knotsBaromVisibWave heightAir tempDewpointWater temp
2018-Apr-13 21:54N 29°28' W 094°51'3 7.8
2018-Apr-13 21:30N 29°31' W 094°53'4 8.0
2018-Apr-13 21:00N 29°34' W 094°55'4 8.1
2018-Apr-13 20:30N 29°38' W 094°58'4 8.2
2018-Apr-13 20:00N 29°41' W 094°59'4 6.5
2018-Apr-13 19:28N 29°44' W 095°02'4 1.9
2018-Apr-13 17:33N 29°47' W 095°04'0 5.6
2018-Apr-13 17:30N 29°47' W 095°04'2 0.1
2018-Apr-13 05:31N 29°46' W 095°06'0 3.3
2018-Apr-13 05:30N 29°46' W 095°06'1 1.4
2018-Apr-13 04:43N 29°47' W 095°05'1 4.1
2018-Apr-13 04:30N 29°46' W 095°05'3 5.3
2018-Apr-13 03:58N 29°44' W 095°02'2 3.7
2018-Apr-13 03:30N 29°42' W 095°01'3 5.4
2018-Apr-13 03:00N 29°41' W 094°59'3 6.0
2018-Apr-13 02:30N 29°38' W 094°58'3 6.0
2018-Apr-13 02:00N 29°35' W 094°56'3 6.1
2018-Apr-13 01:30N 29°33' W 094°54'3 6.0
2018-Apr-13 00:58N 29°30' W 094°52'4 6.5
2018-Apr-13 00:24N 29°27' W 094°50'4 7.4
2018-Apr-12 23:49N 29°23' W 094°48'6 5.3
2018-Apr-12 22:37N 29°18' W 094°53'1 5.2
2018-Apr-12 22:29N 29°17' W 094°54'5 4.4
2018-Apr-12 21:21N 29°16' W 094°59'3 4.8
2018-Apr-12 20:50N 29°14' W 095°01'  
2018-Apr-06 20:21N 29°28' W 094°51'3 7.3
2018-Apr-06 20:01N 29°30' W 094°52'4 7.3
2018-Apr-06 19:30N 29°33' W 094°55'4 7.2
2018-Apr-06 19:01N 29°36' W 094°57'4 7.2
2018-Apr-06 18:31N 29°39' W 094°58'3 6.4
2018-Apr-06 17:58N 29°42' W 095°01'3 5.7
2018-Apr-06 17:31N 29°44' W 095°03'3 5.1
2018-Apr-06 16:53N 29°47' W 095°04'2 0.1
2018-Apr-05 22:12N 29°45' W 095°06'2 8.4
2018-Apr-05 21:59N 29°47' W 095°05'0 0.2
2018-Apr-05 20:39N 29°47' W 095°04'1 0.7
2018-Apr-05 18:39N 29°46' W 095°05'1 6.4
2018-Apr-05 18:29N 29°47' W 095°04'0 0.4
2018-Apr-05 17:57N 29°47' W 095°04'3 6.0
2018-Apr-05 17:23N 29°44' W 095°03'2 6.5
2018-Apr-05 17:00N 29°42' W 095°01'4 7.2
2018-Apr-05 16:31N 29°39' W 094°58'3 5.1
2018-Apr-05 16:00N 29°37' W 094°59'2 4.5
2018-Apr-05 15:30N 29°37' W 095°01'0 0.1
2018-Apr-05 14:48N 29°37' W 095°02'0 0.0
2018-Apr-05 14:07N 29°37' W 095°02'0 0.0
2018-Apr-05 13:45N 29°37' W 095°02'0 0.0
2018-Apr-05 13:21N 29°37' W 095°02'0 0.0
2018-Apr-05 13:00N 29°37' W 095°02'0 0.0
2018-Apr-05 12:30N 29°37' W 095°02'0 0.0
2018-Apr-05 11:06N 29°37' W 095°02'0 0.0
2018-Apr-05 10:42N 29°37' W 095°02'0 0.0
2018-Apr-05 10:30N 29°37' W 095°02'0 0.0
2018-Apr-05 09:33N 29°37' W 095°02'0 0.0
2018-Apr-05 08:55N 29°37' W 095°02'0 0.0
2018-Apr-05 08:29N 29°37' W 095°02'0 0.0
2018-Apr-05 08:00N 29°37' W 095°02'0 0.0
2018-Apr-05 07:30N 29°37' W 095°02'0 0.0
2018-Apr-05 06:54N 29°37' W 095°02'0 0.0
2018-Apr-05 06:30N 29°37' W 095°02'0 0.0
2018-Apr-05 06:00N 29°37' W 095°02'0 0.0
2018-Apr-05 05:27N 29°37' W 095°02'0 0.0
2018-Apr-05 05:00N 29°37' W 095°02'0 0.0
2018-Apr-05 04:31N 29°37' W 095°02'0 0.0
2018-Apr-05 03:56N 29°37' W 095°02'0 0.0
2018-Apr-05 03:20N 29°37' W 095°02'0 0.0
2018-Apr-05 02:27N 29°37' W 095°02'0 0.0
2018-Apr-05 01:52N 29°37' W 095°02'0 0.0
2018-Apr-05 01:30N 29°37' W 095°02'0 0.0
2018-Apr-05 00:46N 29°37' W 095°02'0 0.0
2018-Apr-05 00:30N 29°37' W 095°02'0 0.0
2018-Apr-05 00:00N 29°37' W 095°02'0 0.0
2018-Apr-04 23:30N 29°37' W 095°02'0 0.0
2018-Apr-04 23:00N 29°37' W 095°02'0 0.1
2018-Apr-04 22:30N 29°37' W 095°01'1 1.4
2018-Apr-04 22:00N 29°37' W 095°01'3 5.7
2018-Apr-04 21:31N 29°38' W 094°58'4 8.4
2018-Apr-04 21:00N 29°42' W 095°01'4 8.1
2018-Apr-04 20:30N 29°45' W 095°04'2 1.1
2018-Apr-04 18:47N 29°45' W 095°06'1 0.4
2018-Apr-04 17:19N 29°46' W 095°07'1 2.6
2018-Apr-04 17:00N 29°45' W 095°06'0 0.1
2018-Apr-04 12:34N 29°46' W 095°05'2 1.1
2018-Apr-04 10:25N 29°44' W 095°08'2 2.9
2018-Apr-04 09:40N 29°45' W 095°06'1 3.9
2018-Apr-04 09:29N 29°46' W 095°05'0 0.1
2018-Apr-04 07:43N 29°46' W 095°05'1 0.5
2018-Apr-04 06:05N 29°46' W 095°06'0 0.1
2018-Apr-04 05:59N 29°46' W 095°06'0 0.0
2018-Apr-04 05:30N 29°46' W 095°06'0 0.4
2018-Apr-04 04:20N 29°45' W 095°06'2 5.6
2018-Apr-04 03:58N 29°47' W 095°04'0 0.0
2018-Apr-03 22:43N 29°47' W 095°05'0 0.5
2018-Apr-03 22:08N 29°47' W 095°04'1 4.2
2018-Apr-03 22:00N 29°47' W 095°05'  

Dump ship's entire track history